Time;durP1;ratioP1;P1;durP2;ratioP2;P2;SDS_P1;SDS_P2;PMS_P1;PMS_P2;Temp;Humidity;BMP_temperature;BMP_pressure;BME280_temperature;BME280_humidity;BME280_pressure;Samples;Min_cycle;Max_cycle;Signal;HPM_P1;HPM_P2
2022/04/19 00:00:24;;;;;;;9.38;5.38;;;;;;;;;;5088855;28;20036;-68
2022/04/19 00:02:50;;;;;;;14.13;5.50;;;;;;;;;;5091583;28;20123;-68
2022/04/19 00:05:17;;;;;;;10.43;5.45;;;;;;;;;;5109223;28;20563;-68
2022/04/19 00:07:44;;;;;;;10.52;5.25;;;;;;;;;;5109189;28;20034;-67
2022/04/19 00:10:11;;;;;;;9.88;6.05;;;;;;;;;;5111760;28;20011;-68
2022/04/19 00:12:38;;;;;;;11.73;6.13;;;;;;;;;;5113760;28;20080;-68
2022/04/19 00:15:05;;;;;;;11.50;7.10;;;;;;;;;;5113315;28;20024;-67
2022/04/19 00:17:32;;;;;;;9.90;6.68;;;;;;;;;;5113895;28;20118;-68
2022/04/19 00:19:59;;;;;;;14.63;8.00;;;;;;;;;;5113925;28;20382;-67
2022/04/19 00:22:28;;;;;;;17.10;7.85;;;;;;;;;;5111987;28;20027;-68
2022/04/19 00:24:55;;;;;;;11.35;7.85;;;;;;;;;;5109139;28;20016;-67
2022/04/19 00:27:22;;;;;;;20.00;8.18;;;;;;;;;;5108072;28;20462;-68
2022/04/19 00:29:49;;;;;;;14.57;8.50;;;;;;;;;;5108587;28;20510;-68
2022/04/19 00:32:16;;;;;;;15.20;8.45;;;;;;;;;;5108895;28;20023;-67
2022/04/19 00:34:44;;;;;;;12.65;8.68;;;;;;;;;;5110842;28;20035;-67
2022/04/19 00:37:11;;;;;;;11.63;9.17;;;;;;;;;;5113184;28;20080;-67
2022/04/19 00:39:38;;;;;;;19.50;10.10;;;;;;;;;;5113218;28;20024;-67
2022/04/19 00:42:07;;;;;;;17.43;9.40;;;;;;;;;;5113275;28;20482;-67
2022/04/19 00:44:37;;;;;;;14.27;9.03;;;;;;;;;;5113311;28;20474;-66
2022/04/19 00:47:09;;;;;;;12.17;9.30;;;;;;;;;;5112109;28;20073;-67
2022/04/19 00:49:40;;;;;;;17.13;8.57;;;;;;;;;;5108710;28;20030;-67
2022/04/19 00:52:07;;;;;;;14.27;9.17;;;;;;;;;;5107598;28;20019;-67
2022/04/19 00:54:34;;;;;;;11.37;9.17;;;;;;;;;;5108309;28;20103;-66
2022/04/19 00:57:01;;;;;;;16.13;9.27;;;;;;;;;;5108056;28;20023;-67
2022/04/19 00:59:28;;;;;;;15.87;10.30;;;;;;;;;;5109860;28;20040;-68
2022/04/19 01:01:54;;;;;;;13.87;8.97;;;;;;;;;;5113120;28;20076;-67
2022/04/19 01:04:21;;;;;;;15.77;9.57;;;;;;;;;;5105386;28;20019;-67
2022/04/19 01:06:48;;;;;;;16.00;9.63;;;;;;;;;;5103300;28;20127;-67
2022/04/19 01:09:14;;;;;;;17.30;10.10;;;;;;;;;;5099731;28;20497;-67
2022/04/19 01:14:28;;;;;;;17.20;8.83;;;;;;;;;;5095403;28;20035;-67
2022/04/19 01:16:55;;;;;;;12.77;9.43;;;;;;;;;;5096859;28;20060;-67
2022/04/19 01:19:22;;;;;;;15.47;9.07;;;;;;;;;;5101447;28;20047;-66
2022/04/19 01:21:49;;;;;;;15.27;9.70;;;;;;;;;;5097215;28;20028;-67
2022/04/19 01:24:18;;;;;;;14.03;8.63;;;;;;;;;;5102582;28;20020;-67
2022/04/19 01:26:45;;;;;;;13.83;9.53;;;;;;;;;;5102422;28;20027;-66
2022/04/19 01:29:12;;;;;;;19.10;8.93;;;;;;;;;;5100892;28;20481;-67
2022/04/19 01:31:39;;;;;;;14.20;8.53;;;;;;;;;;5104325;28;20115;-67
2022/04/19 01:34:06;;;;;;;17.43;10.53;;;;;;;;;;5101437;28;20077;-66
2022/04/19 01:36:37;;;;;;;11.47;8.87;;;;;;;;;;5101087;28;20103;-66
2022/04/19 01:39:08;;;;;;;13.23;9.13;;;;;;;;;;5101605;28;20400;-66
2022/04/19 01:41:35;;;;;;;13.90;9.30;;;;;;;;;;5099818;28;20110;-66
2022/04/19 01:44:02;;;;;;;14.60;9.20;;;;;;;;;;5096885;28;20019;-66
2022/04/19 01:46:31;;;;;;;18.73;9.60;;;;;;;;;;5100716;28;20081;-66
2022/04/19 01:48:58;;;;;;;13.37;8.80;;;;;;;;;;5104569;28;20030;-66
2022/04/19 01:51:25;;;;;;;13.10;9.17;;;;;;;;;;5102238;28;20062;-68
2022/04/19 01:53:52;;;;;;;12.10;7.70;;;;;;;;;;5100669;28;20020;-66
2022/04/19 01:56:19;;;;;;;14.20;7.70;;;;;;;;;;5101541;28;20106;-67
2022/04/19 01:58:46;;;;;;;12.80;8.00;;;;;;;;;;5098953;28;20043;-66
2022/04/19 02:01:13;;;;;;;12.23;7.97;;;;;;;;;;5095529;28;20020;-66
2022/04/19 02:03:39;;;;;;;9.63;7.20;;;;;;;;;;5100147;28;20034;-66
2022/04/19 02:06:13;;;;;;;10.90;8.00;;;;;;;;;;5106552;28;20501;-67
2022/04/19 02:08:40;;;;;;;11.63;7.75;;;;;;;;;;5105724;28;20021;-67
2022/04/19 02:11:07;;;;;;;10.47;7.30;;;;;;;;;;5099221;28;20063;-66
2022/04/19 02:13:33;;;;;;;12.00;7.87;;;;;;;;;;5092012;28;20052;-67
2022/04/19 02:16:01;;;;;;;9.73;7.40;;;;;;;;;;5108544;28;20470;-67
2022/04/19 02:18:27;;;;;;;12.63;7.23;;;;;;;;;;5112441;28;20047;-67
2022/04/19 02:20:54;;;;;;;10.27;6.57;;;;;;;;;;5106605;28;20058;-67
2022/04/19 02:23:21;;;;;;;9.73;6.70;;;;;;;;;;5103809;28;20024;-67
2022/04/19 02:25:52;;;;;;;13.87;6.60;;;;;;;;;;5096744;28;20566;-66
2022/04/19 02:28:20;;;;;;;10.47;6.50;;;;;;;;;;5095804;28;20098;-67
2022/04/19 02:30:46;;;;;;;9.97;6.77;;;;;;;;;;5099802;28;20031;-66
2022/04/19 02:33:13;;;;;;;11.00;5.97;;;;;;;;;;5098486;28;20024;-66
2022/04/19 02:35:40;;;;;;;8.90;6.87;;;;;;;;;;5096426;28;20098;-67
2022/04/19 02:38:07;;;;;;;10.13;6.10;;;;;;;;;;5103812;28;20031;-67
2022/04/19 02:40:34;;;;;;;9.60;5.50;;;;;;;;;;5097811;28;20035;-65
2022/04/19 02:43:00;;;;;;;8.57;5.80;;;;;;;;;;5091102;28;20129;-66
2022/04/19 02:45:27;;;;;;;9.60;5.47;;;;;;;;;;5090188;28;20043;-66
2022/04/19 02:48:07;;;;;;;7.60;5.50;;;;;;;;;;5096131;28;20072;-66
2022/04/19 02:50:35;;;;;;;11.23;5.70;;;;;;;;;;5095203;28;20028;-66
2022/04/19 02:53:02;;;;;;;12.70;5.57;;;;;;;;;;5108086;28;20042;-67
2022/04/19 02:55:29;;;;;;;10.40;6.03;;;;;;;;;;5103258;28;20123;-67
2022/04/19 02:57:56;;;;;;;10.53;5.63;;;;;;;;;;5099045;28;20467;-66
2022/04/19 03:00:23;;;;;;;13.33;6.27;;;;;;;;;;5104319;28;20035;-66
2022/04/19 03:02:50;;;;;;;7.33;5.03;;;;;;;;;;5103088;28;20024;-67
2022/04/19 03:05:20;;;;;;;9.67;5.33;;;;;;;;;;5105433;28;20028;-66
2022/04/19 03:07:47;;;;;;;12.60;5.57;;;;;;;;;;5100300;28;20028;-67
2022/04/19 03:10:15;;;;;;;20.00;5.93;;;;;;;;;;5094537;28;20374;-66
2022/04/19 03:12:43;;;;;;;9.13;5.70;;;;;;;;;;5089814;28;20107;-66
2022/04/19 03:15:11;;;;;;;8.80;6.27;;;;;;;;;;5095409;28;20482;-66
2022/04/19 03:17:41;;;;;;;11.97;5.40;;;;;;;;;;5115065;28;20500;-67
2022/04/19 03:20:08;;;;;;;8.60;4.83;;;;;;;;;;5115220;28;20016;-66
2022/04/19 03:28:09;;;;;;;9.88;4.95;;;;;;;;;;5110369;28;20347;-66
2022/04/19 03:30:36;;;;;;;10.57;5.80;;;;;;;;;;5109777;28;20121;-67
2022/04/19 03:33:03;;;;;;;12.07;6.03;;;;;;;;;;5105620;28;20030;-67
2022/04/19 03:35:30;;;;;;;8.43;6.07;;;;;;;;;;5101701;28;20024;-67
2022/04/19 03:37:57;;;;;;;9.80;5.47;;;;;;;;;;5100810;28;20375;-66
2022/04/19 03:40:25;;;;;;;15.60;6.37;;;;;;;;;;5103886;28;20467;-66
2022/04/19 03:42:55;;;;;;;8.63;5.33;;;;;;;;;;5103665;28;20042;-66
2022/04/19 03:45:22;;;;;;;9.40;5.10;;;;;;;;;;5104873;28;20031;-66
2022/04/19 03:47:49;;;;;;;8.60;5.47;;;;;;;;;;5105025;28;20012;-66
2022/04/19 03:50:16;;;;;;;12.57;5.87;;;;;;;;;;5107330;28;20035;-67
2022/04/19 03:52:45;;;;;;;12.07;5.60;;;;;;;;;;5096211;28;20145;-66
2022/04/19 03:55:12;;;;;;;8.90;5.20;;;;;;;;;;5097559;28;20015;-66
2022/04/19 03:57:39;;;;;;;10.50;5.30;;;;;;;;;;5096343;28;20020;-67
2022/04/19 04:00:06;;;;;;;9.27;5.23;;;;;;;;;;5100121;28;20031;-66
2022/04/19 04:02:33;;;;;;;13.27;5.30;;;;;;;;;;5103389;28;20026;-66
2022/04/19 04:05:00;;;;;;;10.87;6.67;;;;;;;;;;5100946;28;20446;-67
2022/04/19 04:07:27;;;;;;;10.00;6.73;;;;;;;;;;5100697;28;20008;-66
2022/04/19 04:09:54;;;;;;;7.43;5.30;;;;;;;;;;5101057;28;20015;-67
2022/04/19 04:12:21;;;;;;;10.33;5.90;;;;;;;;;;5101976;28;20043;-66
2022/04/19 04:14:47;;;;;;;8.77;5.20;;;;;;;;;;5096706;28;20123;-66
2022/04/19 04:17:14;;;;;;;9.20;5.70;;;;;;;;;;5101415;28;20030;-66
2022/04/19 04:19:43;;;;;;;7.40;5.50;;;;;;;;;;5107903;28;20027;-67
2022/04/19 04:22:10;;;;;;;8.27;5.47;;;;;;;;;;5109461;28;20015;-66
2022/04/19 04:24:36;;;;;;;6.93;5.20;;;;;;;;;;5112792;28;20029;-66
2022/04/19 04:27:03;;;;;;;9.23;5.67;;;;;;;;;;5112922;28;20359;-66
2022/04/19 04:29:30;;;;;;;12.37;5.93;;;;;;;;;;5112695;28;20028;-66
2022/04/19 04:31:57;;;;;;;8.23;5.27;;;;;;;;;;5113048;28;20019;-66
2022/04/19 04:34:24;;;;;;;9.37;5.93;;;;;;;;;;5111332;28;20020;-66
2022/04/19 04:36:51;;;;;;;11.40;6.57;;;;;;;;;;5107017;28;20118;-66
2022/04/19 04:39:17;;;;;;;8.63;5.70;;;;;;;;;;5107560;28;20044;-67
2022/04/19 04:41:45;;;;;;;10.07;5.07;;;;;;;;;;5107491;28;20031;-66
2022/04/19 04:44:12;;;;;;;7.13;4.80;;;;;;;;;;5107935;28;20427;-66
2022/04/19 04:49:35;;;;;;;;;;;;;;;;;;5112778;28;20088;-66
2022/04/19 04:52:03;;;;;;;9.47;5.27;;;;;;;;;;5112636;28;19908;-66
2022/04/19 04:54:30;;;;;;;8.10;5.10;;;;;;;;;;5112753;28;20023;-67
2022/04/19 04:56:56;;;;;;;7.37;4.83;;;;;;;;;;5110390;28;20027;-66
2022/04/19 04:59:23;;;;;;;9.63;5.00;;;;;;;;;;5086063;28;458292;-66
2022/04/19 05:01:50;;;;;;;10.70;5.80;;;;;;;;;;5093700;28;20039;-66
2022/04/19 05:04:17;;;;;;;10.43;4.87;;;;;;;;;;5107905;28;20023;-66
2022/04/19 05:06:43;;;;;;;9.70;5.70;;;;;;;;;;5108487;28;20024;-66
2022/04/19 05:09:10;;;;;;;7.57;5.13;;;;;;;;;;5113128;28;20390;-66
2022/04/19 05:11:37;;;;;;;8.63;6.10;;;;;;;;;;5112810;28;20066;-67
2022/04/19 05:14:03;;;;;;;9.13;6.07;;;;;;;;;;5112688;28;20031;-67
2022/04/19 05:16:30;;;;;;;10.67;5.93;;;;;;;;;;5112676;28;20098;-67
2022/04/19 05:18:57;;;;;;;8.67;5.77;;;;;;;;;;5111173;28;20871;-69
2022/04/19 05:21:23;;;;;;;8.60;4.73;;;;;;;;;;5099440;28;20019;-65
2022/04/19 05:23:50;;;;;;;6.30;5.03;;;;;;;;;;5087350;28;20039;-68
2022/04/19 05:26:17;;;;;;;9.97;5.27;;;;;;;;;;5103307;28;20098;-69
2022/04/19 05:28:44;;;;;;;9.37;5.53;;;;;;;;;;5107481;28;20106;-66
2022/04/19 05:31:11;;;;;;;6.67;5.20;;;;;;;;;;5108013;28;20352;-66
2022/04/19 05:33:37;;;;;;;11.13;5.57;;;;;;;;;;5101902;28;20031;-70
2022/04/19 05:36:04;;;;;;;8.17;5.60;;;;;;;;;;5092182;28;20020;-66
2022/04/19 05:38:31;;;;;;;11.17;5.73;;;;;;;;;;5110734;28;20043;-69
2022/04/19 05:40:58;;;;;;;10.63;6.53;;;;;;;;;;5112563;28;20030;-68
2022/04/19 05:43:25;;;;;;;8.90;6.30;;;;;;;;;;5107012;28;20023;-69
2022/04/19 05:45:52;;;;;;;10.17;7.30;;;;;;;;;;5104122;28;20062;-68
2022/04/19 05:48:19;;;;;;;9.27;6.97;;;;;;;;;;5086633;28;20032;-67
2022/04/19 05:50:46;;;;;;;9.00;6.53;;;;;;;;;;5086852;28;20374;-68
2022/04/19 05:53:12;;;;;;;12.53;7.07;;;;;;;;;;5090158;28;20387;-67
2022/04/19 05:55:39;;;;;;;12.80;7.43;;;;;;;;;;5091071;28;20024;-68
2022/04/19 05:58:06;;;;;;;10.10;7.67;;;;;;;;;;5093274;28;20088;-68
2022/04/19 06:00:32;;;;;;;12.47;7.80;;;;;;;;;;5111524;28;20043;-67
2022/04/19 06:05:44;;;;;;;13.95;7.72;;;;;;;;;;5108978;28;20089;-67
2022/04/19 06:08:11;;;;;;;11.30;7.10;;;;;;;;;;5107130;28;20051;-68
2022/04/19 06:10:37;;;;;;;9.77;7.10;;;;;;;;;;5106919;28;20031;-68
2022/04/19 06:13:04;;;;;;;14.13;7.37;;;;;;;;;;5110587;28;20031;-67
2022/04/19 06:15:31;;;;;;;10.93;7.90;;;;;;;;;;5111541;28;20031;-67
2022/04/19 06:17:58;;;;;;;14.23;8.90;;;;;;;;;;5114754;28;20096;-68
2022/04/19 06:20:25;;;;;;;17.03;9.37;;;;;;;;;;5115524;28;20485;-70
2022/04/19 06:22:52;;;;;;;12.73;7.77;;;;;;;;;;5115595;28;20019;-68
2022/04/19 06:25:19;;;;;;;11.33;8.13;;;;;;;;;;5116004;28;20028;-69
2022/04/19 06:27:46;;;;;;;14.80;8.70;;;;;;;;;;5116089;28;20049;-69
2022/04/19 06:30:14;;;;;;;12.17;7.83;;;;;;;;;;5113711;28;20378;-70
2022/04/19 06:32:42;;;;;;;13.70;8.27;;;;;;;;;;5111246;28;20103;-70
2022/04/19 06:35:09;;;;;;;12.73;8.90;;;;;;;;;;5111013;28;20471;-70
2022/04/19 06:37:36;;;;;;;14.07;8.23;;;;;;;;;;5111102;28;20748;-69
2022/04/19 06:40:04;;;;;;;11.77;8.30;;;;;;;;;;5111231;28;20461;-68
2022/04/19 06:42:32;;;;;;;10.60;7.40;;;;;;;;;;5113802;28;20103;-66
2022/04/19 06:44:58;;;;;;;14.77;8.03;;;;;;;;;;5115677;28;20019;-67
2022/04/19 06:47:25;;;;;;;13.13;7.50;;;;;;;;;;5115600;28;20084;-66
2022/04/19 06:49:57;;;;;;;10.07;7.67;;;;;;;;;;5115746;28;20028;-68
2022/04/19 06:52:24;;;;;;;11.77;8.23;;;;;;;;;;5115498;28;20382;-68
2022/04/19 06:54:51;;;;;;;11.57;7.93;;;;;;;;;;5113959;28;20024;-66
2022/04/19 06:57:18;;;;;;;14.27;8.30;;;;;;;;;;5110616;28;20105;-66
2022/04/19 06:59:44;;;;;;;15.10;9.53;;;;;;;;;;5110409;28;20028;-66
2022/04/19 07:02:11;;;;;;;14.00;8.53;;;;;;;;;;5110428;28;20027;-66
2022/04/19 07:04:39;;;;;;;15.03;8.17;;;;;;;;;;5110909;28;20023;-66
2022/04/19 07:07:06;;;;;;;12.90;8.23;;;;;;;;;;5112440;28;20035;-66
2022/04/19 07:09:32;;;;;;;12.50;8.97;;;;;;;;;;5115102;28;20046;-66
2022/04/19 07:11:59;;;;;;;12.97;8.90;;;;;;;;;;5115117;28;20088;-66
2022/04/19 07:14:26;;;;;;;21.70;10.27;;;;;;;;;;5115267;28;20482;-66
2022/04/19 07:16:52;;;;;;;9.43;7.73;;;;;;;;;;5115329;28;20498;-66
2022/04/19 07:19:19;;;;;;;12.47;8.73;;;;;;;;;;5113686;28;20035;-66
2022/04/19 07:27:16;;;;;;;;;;;;;;;;;;5110671;28;20123;-66
2022/04/19 07:29:42;;;;;;;11.10;8.87;;;;;;;;;;5109903;28;19955;-67
2022/04/19 07:32:09;;;;;;;14.60;10.63;;;;;;;;;;5112431;28;20027;-66
2022/04/19 07:34:36;;;;;;;17.07;10.60;;;;;;;;;;5107330;28;20355;-67
2022/04/19 07:37:03;;;;;;;16.00;10.53;;;;;;;;;;5102460;28;20020;-67
2022/04/19 07:39:29;;;;;;;13.90;10.87;;;;;;;;;;5105781;28;20032;-68
2022/04/19 07:41:57;;;;;;;15.80;10.33;;;;;;;;;;5105905;28;20013;-67
2022/04/19 07:44:28;;;;;;;15.70;10.43;;;;;;;;;;5101504;28;20012;-69
2022/04/19 07:46:55;;;;;;;15.03;10.73;;;;;;;;;;5098822;28;20068;-68
2022/04/19 07:49:22;;;;;;;13.53;10.07;;;;;;;;;;5099865;28;20023;-68
2022/04/19 07:51:49;;;;;;;15.63;10.43;;;;;;;;;;5100557;28;20020;-67
2022/04/19 07:54:16;;;;;;;12.27;9.20;;;;;;;;;;5100948;28;20019;-68
2022/04/19 07:56:43;;;;;;;12.77;9.73;;;;;;;;;;5101366;28;20170;-68
2022/04/19 07:59:09;;;;;;;19.33;9.40;;;;;;;;;;5103220;28;20039;-68
2022/04/19 08:01:36;;;;;;;11.40;8.00;;;;;;;;;;5100233;28;20530;-68
2022/04/19 08:04:03;;;;;;;11.40;8.63;;;;;;;;;;5103807;28;20371;-68
2022/04/19 08:06:30;;;;;;;12.13;7.43;;;;;;;;;;5103652;28;20447;-68
2022/04/19 08:08:56;;;;;;;12.50;8.93;;;;;;;;;;5103318;28;20109;-69
2022/04/19 08:11:23;;;;;;;12.90;9.00;;;;;;;;;;5097614;28;20020;-67
2022/04/19 08:13:50;;;;;;;11.90;8.53;;;;;;;;;;5099904;28;20023;-67
2022/04/19 08:16:16;;;;;;;15.00;9.47;;;;;;;;;;5097704;28;20016;-67
2022/04/19 08:18:43;;;;;;;15.30;7.73;;;;;;;;;;5099329;28;20031;-67
2022/04/19 08:21:11;;;;;;;11.67;7.40;;;;;;;;;;5099140;28;20382;-66
2022/04/19 08:23:38;;;;;;;11.47;7.30;;;;;;;;;;5103512;28;20180;-67
2022/04/19 08:26:05;;;;;;;10.77;7.53;;;;;;;;;;5103324;28;20016;-68
2022/04/19 08:28:32;;;;;;;11.27;7.20;;;;;;;;;;5103441;28;20023;-67
2022/04/19 08:30:59;;;;;;;9.23;6.97;;;;;;;;;;5101787;28;20012;-67
2022/04/19 08:33:26;;;;;;;10.47;6.93;;;;;;;;;;5106060;28;20430;-67
2022/04/19 08:35:53;;;;;;;9.90;7.07;;;;;;;;;;5097493;28;20020;-67
2022/04/19 08:38:19;;;;;;;8.40;6.40;;;;;;;;;;5096857;28;20497;-67
2022/04/19 08:40:48;;;;;;;11.23;6.70;;;;;;;;;;5104463;28;20027;-69
2022/04/19 08:43:14;;;;;;;8.80;6.60;;;;;;;;;;5108231;28;20019;-69
2022/04/19 08:45:41;;;;;;;8.57;6.97;;;;;;;;;;5108874;28;20452;-69
2022/04/19 08:48:09;;;;;;;13.70;7.77;;;;;;;;;;5113680;28;20023;-69
2022/04/19 08:50:38;;;;;;;11.17;6.80;;;;;;;;;;5113387;28;20028;-69
2022/04/19 08:58:35;;;;;;;11.55;6.50;;;;;;;;;;5102851;28;20050;-69
2022/04/19 09:01:01;;;;;;;11.47;6.97;;;;;;;;;;5093087;28;20028;-69
2022/04/19 09:03:28;;;;;;;13.53;7.33;;;;;;;;;;5094415;28;20032;-66
2022/04/19 09:05:55;;;;;;;8.63;6.73;;;;;;;;;;5094197;28;20035;-68
2022/04/19 09:08:21;;;;;;;8.77;6.47;;;;;;;;;;5092820;28;20435;-66
2022/04/19 09:10:50;;;;;;;9.17;5.90;;;;;;;;;;5095266;28;20058;-68
2022/04/19 09:13:24;;;;;;;10.77;7.47;;;;;;;;;;5101880;28;20399;-69
2022/04/19 09:15:54;;;;;;;10.90;7.10;;;;;;;;;;5102394;28;20035;-66
2022/04/19 09:18:30;;;;;;;7.57;5.43;;;;;;;;;;5101880;28;20086;-67
2022/04/19 09:21:00;;;;;;;9.07;6.50;;;;;;;;;;5098868;28;20467;-67
2022/04/19 09:23:29;;;;;;;13.03;7.10;;;;;;;;;;5099229;28;20046;-66
2022/04/19 09:26:09;;;;;;;13.93;8.60;;;;;;;;;;5097546;28;20020;-67
2022/04/19 09:28:38;;;;;;;11.03;7.30;;;;;;;;;;5099650;28;20474;-66
2022/04/19 09:31:11;;;;;;;8.87;7.00;;;;;;;;;;5107476;28;20757;-66
2022/04/19 09:33:38;;;;;;;10.63;7.30;;;;;;;;;;5107739;28;20504;-67
2022/04/19 09:36:05;;;;;;;14.77;7.87;;;;;;;;;;5109224;28;20351;-66
2022/04/19 09:38:37;;;;;;;9.80;5.70;;;;;;;;;;5112784;28;20144;-67
2022/04/19 09:41:05;;;;;;;11.80;7.80;;;;;;;;;;5112635;28;20077;-67
2022/04/19 09:43:33;;;;;;;8.80;7.10;;;;;;;;;;5112619;28;20424;-66
2022/04/19 09:46:03;;;;;;;19.70;12.73;;;;;;;;;;5112184;28;20472;-67
2022/04/19 09:48:31;;;;;;;18.07;10.67;;;;;;;;;;5111154;28;20451;-67
2022/04/19 09:50:59;;;;;;;12.83;9.30;;;;;;;;;;5107704;28;20426;-66
2022/04/19 09:53:28;;;;;;;21.20;14.17;;;;;;;;;;5107534;28;20047;-66
2022/04/19 09:55:56;;;;;;;27.40;16.37;;;;;;;;;;5107457;28;20030;-66
2022/04/19 09:58:23;;;;;;;18.20;12.07;;;;;;;;;;5107471;28;20040;-65
2022/04/19 10:00:50;;;;;;;23.83;14.03;;;;;;;;;;5108639;28;20471;-66
2022/04/19 10:08:48;;;;;;;19.33;12.57;;;;;;;;;;5112371;28;20077;-65
2022/04/19 10:11:16;;;;;;;19.83;13.00;;;;;;;;;;5112043;28;20084;-65
2022/04/19 10:13:43;;;;;;;22.73;12.77;;;;;;;;;;5110304;28;20047;-65
2022/04/19 10:16:12;;;;;;;19.90;11.97;;;;;;;;;;5107462;28;20076;-65
2022/04/19 10:18:46;;;;;;;22.57;13.20;;;;;;;;;;5107327;28;20111;-65
2022/04/19 10:21:18;;;;;;;23.67;15.20;;;;;;;;;;5107122;28;20030;-65
2022/04/19 10:23:45;;;;;;;20.77;12.27;;;;;;;;;;5106360;28;20861;-65
2022/04/19 10:26:18;;;;;;;29.93;15.27;;;;;;;;;;5110155;28;20053;-65
2022/04/19 10:28:45;;;;;;;19.03;12.03;;;;;;;;;;5110885;28;20052;-65
2022/04/19 10:31:12;;;;;;;20.63;11.97;;;;;;;;;;5111186;28;20012;-65
2022/04/19 10:33:52;;;;;;;20.60;10.07;;;;;;;;;;5112219;28;20063;-65
2022/04/19 10:36:23;;;;;;;19.50;10.43;;;;;;;;;;5112011;28;20048;-65
2022/04/19 10:39:11;;;;;;;14.67;9.50;;;;;;;;;;5108516;28;20028;-65
2022/04/19 10:41:47;;;;;;;13.53;8.60;;;;;;;;;;5107398;28;20420;-66
2022/04/19 10:44:28;;;;;;;12.93;8.13;;;;;;;;;;5107209;28;20023;-66
2022/04/19 10:47:05;;;;;;;14.30;8.77;;;;;;;;;;5107428;28;20161;-66
2022/04/19 10:49:37;;;;;;;15.63;7.43;;;;;;;;;;5107212;28;20032;-66
2022/04/19 10:52:23;;;;;;;10.00;7.17;;;;;;;;;;5111497;28;20020;-66
2022/04/19 10:55:08;;;;;;;10.67;8.07;;;;;;;;;;5111892;28;20112;-66
2022/04/19 11:00:29;;;;;;;13.23;8.30;;;;;;;;;;5115235;28;20092;-64
2022/04/19 11:02:57;;;;;;;12.87;7.37;;;;;;;;;;5113267;28;20051;-64
2022/04/19 11:05:38;;;;;;;14.80;9.07;;;;;;;;;;5110706;28;20054;-64
2022/04/19 11:08:23;;;;;;;11.83;7.63;;;;;;;;;;5110516;28;20027;-66
2022/04/19 11:10:50;;;;;;;11.80;7.20;;;;;;;;;;5110537;28;20047;-66
2022/04/19 11:13:17;;;;;;;15.53;8.00;;;;;;;;;;5110340;28;20024;-65
2022/04/19 11:15:44;;;;;;;9.10;5.90;;;;;;;;;;5113876;28;20340;-66
2022/04/19 11:18:23;;;;;;;14.77;7.53;;;;;;;;;;5115130;28;20366;-66
2022/04/19 11:20:50;;;;;;;11.77;7.20;;;;;;;;;;5115219;28;20739;-66
2022/04/19 11:23:20;;;;;;;11.70;7.07;;;;;;;;;;5115091;28;20027;-66
2022/04/19 11:25:48;;;;;;;10.07;6.77;;;;;;;;;;5105959;28;20256;-66
2022/04/19 11:28:21;;;;;;;11.27;6.77;;;;;;;;;;5104967;28;20031;-66
2022/04/19 11:30:51;;;;;;;13.47;7.03;;;;;;;;;;5109933;28;20260;-65
2022/04/19 11:33:21;;;;;;;10.40;6.43;;;;;;;;;;5110234;28;20055;-65
2022/04/19 11:36:07;;;;;;;10.23;6.97;;;;;;;;;;5109748;28;20067;-67
2022/04/19 11:38:35;;;;;;;13.15;8.77;;;;;;;;;;5107633;28;20031;-67
2022/04/19 11:46:47;;;;;;;9.88;7.13;;;;;;;;;;5114736;28;20335;-66
2022/04/19 11:49:29;;;;;;;10.43;7.17;;;;;;;;;;5114517;28;20062;-66
2022/04/19 11:52:00;;;;;;;13.53;6.80;;;;;;;;;;5112003;28;20319;-68
2022/04/19 11:54:27;;;;;;;12.53;7.23;;;;;;;;;;5109013;28;20296;-68
2022/04/19 11:56:58;;;;;;;11.13;7.10;;;;;;;;;;5108926;28;20248;-70
2022/04/19 11:59:28;;;;;;;10.13;7.20;;;;;;;;;;5109033;28;20028;-68
2022/04/19 12:01:55;;;;;;;11.07;6.80;;;;;;;;;;5111111;28;20063;-68
2022/04/19 12:04:22;;;;;;;12.13;7.63;;;;;;;;;;5114556;28;20260;-67
2022/04/19 12:06:50;;;;;;;15.97;7.77;;;;;;;;;;5114558;28;20268;-66
2022/04/19 12:09:17;;;;;;;10.17;7.17;;;;;;;;;;5114202;28;20274;-66
2022/04/19 12:11:45;;;;;;;13.23;6.30;;;;;;;;;;5113835;28;20271;-69
2022/04/19 12:14:23;;;;;;;9.10;6.53;;;;;;;;;;5111470;28;20248;-66
2022/04/19 12:16:55;;;;;;;10.70;6.73;;;;;;;;;;5102484;28;20280;-66
2022/04/19 12:19:31;;;;;;;12.33;6.50;;;;;;;;;;5097822;28;20381;-65
2022/04/19 12:21:58;;;;;;;9.77;6.87;;;;;;;;;;5097047;28;20307;-67
2022/04/19 12:24:25;;;;;;;10.67;7.40;;;;;;;;;;5098415;28;20257;-66
2022/04/19 12:27:06;;;;;;;13.30;7.53;;;;;;;;;;5104321;28;20344;-66
2022/04/19 12:29:33;;;;;;;13.97;8.70;;;;;;;;;;5100078;28;20258;-67
2022/04/19 12:32:01;;;;;;;9.83;6.60;;;;;;;;;;5106427;28;20672;-66
2022/04/19 12:34:37;;;;;;;16.47;7.90;;;;;;;;;;5103154;28;20289;-67
2022/04/19 12:37:14;;;;;;;11.07;6.50;;;;;;;;;;5090856;28;20679;-65
2022/04/19 12:39:42;;;;;;;12.93;7.33;;;;;;;;;;5103589;28;20295;-67
2022/04/19 12:42:12;;;;;;;10.03;6.27;;;;;;;;;;5087813;28;20339;-67
2022/04/19 12:44:39;;;;;;;10.67;6.23;;;;;;;;;;5087342;28;20257;-67
2022/04/19 12:47:14;;;;;;;15.83;7.60;;;;;;;;;;5089798;28;20267;-67
2022/04/19 12:49:47;;;;;;;15.45;8.20;;;;;;;;;;5102329;28;20776;-64
2022/04/19 12:52:15;;;;;;;20.33;7.63;;;;;;;;;;5102634;28;20043;-64
2022/04/19 12:54:43;;;;;;;9.00;6.50;;;;;;;;;;5102496;28;20253;-64
2022/04/19 12:57:14;;;;;;;10.57;6.13;;;;;;;;;;5101138;28;20252;-66
2022/04/19 12:59:43;;;;;;;13.90;7.90;;;;;;;;;;5102101;28;20283;-66
2022/04/19 13:02:10;;;;;;;12.70;7.83;;;;;;;;;;5096821;28;20418;-68
2022/04/19 13:04:37;;;;;;;10.40;7.03;;;;;;;;;;5098623;28;20271;-67
2022/04/19 13:12:34;;;;;;;11.20;8.43;;;;;;;;;;5110621;28;20088;-69
2022/04/19 13:15:01;;;;;;;10.47;8.23;;;;;;;;;;5112556;28;20038;-69
2022/04/19 13:17:31;;;;;;;11.13;8.17;;;;;;;;;;5112578;28;20015;-69
2022/04/19 13:19:58;;;;;;;14.97;9.23;;;;;;;;;;5111342;28;20031;-69
2022/04/19 13:22:25;;;;;;;12.37;8.50;;;;;;;;;;5105827;28;20423;-69
2022/04/19 13:24:51;;;;;;;13.57;8.60;;;;;;;;;;5097487;28;20016;-69
2022/04/19 13:27:19;;;;;;;14.03;8.70;;;;;;;;;;5099476;28;20031;-69
2022/04/19 13:29:46;;;;;;;14.23;8.10;;;;;;;;;;5096212;28;20501;-70
2022/04/19 13:32:13;;;;;;;13.70;8.13;;;;;;;;;;5097517;28;20024;-70
2022/04/19 13:34:40;;;;;;;10.37;7.73;;;;;;;;;;5100674;28;20023;-70
2022/04/19 13:37:07;;;;;;;9.93;7.10;;;;;;;;;;5103083;28;20024;-70
2022/04/19 13:39:34;;;;;;;13.27;7.30;;;;;;;;;;5099271;28;20379;-70
2022/04/19 13:42:01;;;;;;;9.97;7.87;;;;;;;;;;5105028;28;20042;-70
2022/04/19 13:44:28;;;;;;;13.97;8.63;;;;;;;;;;5111998;28;20052;-69
2022/04/19 13:46:57;;;;;;;11.63;8.63;;;;;;;;;;5107992;28;20028;-70
2022/04/19 13:49:24;;;;;;;15.17;10.60;;;;;;;;;;5106871;28;20053;-70
2022/04/19 13:51:52;;;;;;;16.53;9.83;;;;;;;;;;5105264;28;20032;-70
2022/04/19 13:54:20;;;;;;;13.70;9.73;;;;;;;;;;5106586;28;20023;-70
2022/04/19 13:56:48;;;;;;;23.17;12.97;;;;;;;;;;5109559;28;20107;-70
2022/04/19 13:59:17;;;;;;;20.37;11.90;;;;;;;;;;5111835;28;20115;-70
2022/04/19 14:01:44;;;;;;;17.70;12.20;;;;;;;;;;5111140;28;20019;-70
2022/04/19 14:04:11;;;;;;;14.23;10.70;;;;;;;;;;5109934;28;20035;-70
2022/04/19 14:06:44;;;;;;;13.43;10.27;;;;;;;;;;5111433;28;20020;-70
2022/04/19 14:09:12;;;;;;;13.93;10.13;;;;;;;;;;5106378;28;21067;-70
2022/04/19 14:11:38;;;;;;;16.47;11.17;;;;;;;;;;5105306;28;20028;-70
2022/04/19 14:14:05;;;;;;;14.63;10.20;;;;;;;;;;5101825;28;20024;-70
2022/04/19 14:16:32;;;;;;;13.37;9.70;;;;;;;;;;5106275;28;20503;-70
2022/04/19 14:18:59;;;;;;;15.47;10.63;;;;;;;;;;5109446;28;20031;-70
2022/04/19 14:21:26;;;;;;;12.57;9.97;;;;;;;;;;5102976;28;20027;-70
2022/04/19 14:23:53;;;;;;;14.90;9.60;;;;;;;;;;5090314;28;20029;-71
2022/04/19 14:26:20;;;;;;;15.53;10.30;;;;;;;;;;5098457;28;20023;-70
2022/04/19 14:34:16;;;;;;;13.48;9.50;;;;;;;;;;5106270;28;20043;-70
2022/04/19 14:36:43;;;;;;;10.97;8.70;;;;;;;;;;5098064;28;20094;-70
2022/04/19 14:39:10;;;;;;;14.73;10.30;;;;;;;;;;5106229;28;20035;-70
2022/04/19 14:41:38;;;;;;;12.87;8.87;;;;;;;;;;5112904;28;20011;-70
2022/04/19 14:44:05;;;;;;;13.20;8.47;;;;;;;;;;5113192;28;20052;-70
2022/04/19 14:46:32;;;;;;;12.27;8.40;;;;;;;;;;5114576;28;20024;-70
2022/04/19 14:48:59;;;;;;;15.10;10.20;;;;;;;;;;5114069;28;20030;-70
2022/04/19 14:54:11;;;;;;;15.15;8.88;;;;;;;;;;5109667;28;20039;-71
2022/04/19 14:56:38;;;;;;;10.23;8.10;;;;;;;;;;5100878;28;20036;-70
2022/04/19 14:59:15;;;;;;;8.50;6.33;;;;;;;;;;5091143;28;20507;-70
2022/04/19 15:01:42;;;;;;;10.67;7.77;;;;;;;;;;5103329;28;20046;-70
2022/04/19 15:04:09;;;;;;;13.90;7.37;;;;;;;;;;5102437;28;20402;-70
2022/04/19 15:06:35;;;;;;;12.60;7.70;;;;;;;;;;5103294;28;20024;-70
2022/04/19 15:09:05;;;;;;;9.57;7.13;;;;;;;;;;5098048;28;20031;-70
2022/04/19 15:11:32;;;;;;;11.33;7.27;;;;;;;;;;5105319;28;20027;-70
2022/04/19 15:13:59;;;;;;;10.17;7.90;;;;;;;;;;5113035;28;20016;-71
2022/04/19 15:16:26;;;;;;;13.37;8.17;;;;;;;;;;5100471;28;20024;-71
2022/04/19 15:18:52;;;;;;;13.70;7.97;;;;;;;;;;5098566;28;20642;-70
2022/04/19 15:21:19;;;;;;;11.43;6.93;;;;;;;;;;5101719;28;20028;-70
2022/04/19 15:23:46;;;;;;;13.10;7.10;;;;;;;;;;5097475;28;20025;-70
2022/04/19 15:26:18;;;;;;;10.17;7.63;;;;;;;;;;5100632;28;20110;-70
2022/04/19 15:28:45;;;;;;;12.83;8.73;;;;;;;;;;5100947;28;20012;-70